createdAt,value
2017-12-15T00:02:14.136Z,100018.08
2017-12-15T00:04:45.069Z,100010.90
2017-12-15T00:07:14.359Z,100011.45
2017-12-15T00:09:44.290Z,100011.03
2017-12-15T00:12:14.689Z,100008.94
2017-12-15T00:14:44.528Z,99999.19
2017-12-15T00:17:14.790Z,100003.83
2017-12-15T00:19:45.323Z,99993.72
2017-12-15T00:22:17.555Z,99987.44
2017-12-15T00:25:02.188Z,99991.74
2017-12-15T00:27:32.027Z,99988.17
2017-12-15T00:30:03.579Z,99984.44
2017-12-15T00:32:34.505Z,99982.75
2017-12-15T00:35:04.483Z,99990.85
2017-12-15T00:37:33.635Z,99980.77
2017-12-15T00:40:03.584Z,99977.80
2017-12-15T00:42:35.204Z,99974.42
2017-12-15T00:45:05.051Z,99973.96
2017-12-15T00:47:34.252Z,99972.66
2017-12-15T00:50:03.454Z,99975.59
2017-12-15T00:52:33.572Z,99975.59
2017-12-15T00:55:02.749Z,99974.33
2017-12-15T00:57:33.085Z,99990.84
2017-12-15T01:00:03.260Z,99994.20
2017-12-15T01:02:32.380Z,100003.53
2017-12-15T01:05:02.331Z,99999.80
2017-12-15T01:07:31.391Z,99996.83
2017-12-15T01:10:02.683Z,99994.70
2017-12-15T01:12:33.310Z,99982.48
2017-12-15T01:15:03.854Z,99979.96
2017-12-15T01:17:34.125Z,99979.19
2017-12-15T01:20:05.465Z,99978.37
2017-12-15T01:22:37.989Z,99972.90
2017-12-15T01:25:09.598Z,99979.24
2017-12-15T01:27:40.373Z,99974.12
2017-12-15T01:30:10.194Z,99975.36
2017-12-15T01:32:40.133Z,99978.74
2017-12-15T01:35:10.960Z,99970.30
2017-12-15T01:37:41.358Z,99966.95
2017-12-15T01:40:11.440Z,99958.08
2017-12-15T01:42:40.649Z,99952.25
2017-12-15T01:45:10.839Z,99953.52
2017-12-15T01:47:40.714Z,99953.97
2017-12-15T01:50:10.549Z,99946.81
2017-12-15T01:52:40.826Z,99949.35
2017-12-15T01:55:11.668Z,99949.41
2017-12-15T01:57:40.648Z,99948.59
2017-12-15T02:00:10.539Z,99966.81
2017-12-15T02:05:41.999Z,99972.28
2017-12-15T02:08:12.172Z,99971.45
2017-12-15T02:10:41.115Z,99968.89
2017-12-15T02:13:12.116Z,99977.75
2017-12-15T02:15:41.310Z,99979.45
2017-12-15T02:18:10.377Z,99977.34
2017-12-15T02:20:39.382Z,99983.65
2017-12-15T02:23:08.475Z,99983.20
2017-12-15T02:25:39.415Z,99981.50
2017-12-15T02:28:09.595Z,99984.05
2017-12-15T02:30:40.355Z,99988.23
2017-12-15T02:33:09.362Z,99996.68
2017-12-15T02:35:40.055Z,100000.95
2017-12-15T02:38:11.410Z,99997.19
2017-12-15T02:43:20.560Z,99986.28
2017-12-15T02:45:49.488Z,99979.56
2017-12-15T02:48:20.078Z,99979.14
2017-12-15T02:50:49.151Z,99974.93
2017-12-15T02:53:18.271Z,99968.54
2017-12-15T02:55:48.391Z,99966.84
2017-12-15T03:00:53.224Z,99963.93
2017-12-15T03:03:22.628Z,99967.74
2017-12-15T03:05:51.940Z,99961.42
2017-12-15T03:08:21.856Z,99976.19
2017-12-15T03:10:54.843Z,99984.22
2017-12-15T03:13:24.378Z,99979.13
2017-12-15T03:15:54.366Z,99979.10
2017-12-15T03:18:23.671Z,99990.52
2017-12-15T03:20:52.967Z,100003.19
2017-12-15T03:23:22.073Z,100006.55
2017-12-15T03:25:53.630Z,100011.16
2017-12-15T03:28:23.740Z,100023.83
2017-12-15T03:30:57.824Z,100036.09
2017-12-15T03:33:27.770Z,100034.39
2017-12-15T03:35:56.857Z,100030.63
2017-12-15T03:38:27.121Z,100037.41
2017-12-15T03:40:57.402Z,100038.64
2017-12-15T03:43:26.504Z,100047.47
2017-12-15T03:45:57.482Z,100053.36
2017-12-15T03:48:29.574Z,100056.69
2017-12-15T03:50:59.401Z,100057.48
2017-12-15T03:53:28.529Z,100057.86
2017-12-15T03:55:57.518Z,100054.89
2017-12-15T03:58:30.443Z,100052.35
2017-12-15T04:00:59.495Z,100059.05
2017-12-15T04:03:33.178Z,100047.63
2017-12-15T04:06:03.374Z,100050.58
2017-12-15T04:08:32.619Z,100038.73
2017-12-15T04:11:02.774Z,100044.75
2017-12-15T04:13:34.007Z,100041.03
2017-12-15T04:16:02.984Z,100044.44
2017-12-15T04:18:32.948Z,100038.98
2017-12-15T04:21:03.166Z,100051.66
2017-12-15T04:23:34.105Z,100057.98
2017-12-15T04:26:03.161Z,100053.33
2017-12-15T04:28:33.067Z,100061.34
2017-12-15T04:31:04.112Z,100057.55
2017-12-15T04:33:33.820Z,100065.56
2017-12-15T04:36:03.021Z,100067.66
2017-12-15T04:38:32.876Z,100063.02
2017-12-15T04:41:01.961Z,100072.35
2017-12-15T04:43:31.844Z,100067.28
2017-12-15T04:46:00.904Z,100063.08
2017-12-15T04:48:35.142Z,100061.77
2017-12-15T04:51:04.456Z,100063.78
2017-12-15T04:53:33.408Z,100060.36
2017-12-15T04:56:02.644Z,100065.81
2017-12-15T05:01:06.663Z,100068.63
2017-12-15T05:03:36.683Z,100068.17
2017-12-15T05:06:06.553Z,100066.00
2017-12-15T05:08:36.732Z,100068.52
2017-12-15T05:11:07.620Z,100075.73
2017-12-15T05:19:12.808Z,100091.06
2017-12-15T05:21:41.759Z,100085.69
2017-12-15T05:26:46.796Z,100084.05
2017-12-15T05:29:15.873Z,100085.63
2017-12-15T05:31:45.993Z,100085.88
2017-12-15T05:34:17.036Z,100079.03
2017-12-15T05:36:53.747Z,100081.48
2017-12-15T05:39:23.090Z,100083.95
2017-12-15T05:41:52.206Z,100086.89
2017-12-15T05:44:22.321Z,100089.80
2017-12-15T05:46:52.476Z,100091.89
2017-12-15T05:49:21.448Z,100088.88
2017-12-15T05:51:51.194Z,100090.08
2017-12-15T05:54:20.191Z,100094.26
2017-12-15T05:56:50.363Z,100095.00
2017-12-15T05:59:20.395Z,100096.60
2017-12-15T06:01:50.323Z,100096.95
2017-12-15T06:04:19.992Z,100093.55
2017-12-15T06:06:49.938Z,100104.46
2017-12-15T06:09:19.290Z,100099.78
2017-12-15T06:11:48.491Z,100103.49
2017-12-15T06:14:18.584Z,100107.73
2017-12-15T06:16:47.812Z,100107.67
2017-12-15T06:19:17.854Z,100108.13
2017-12-15T06:21:49.640Z,100119.83
2017-12-15T06:24:19.382Z,100118.00
2017-12-15T06:26:49.008Z,100125.63
2017-12-15T06:29:18.770Z,100121.69
2017-12-15T06:31:47.998Z,100119.02
2017-12-15T06:34:20.303Z,100117.65
2017-12-15T06:36:49.746Z,100107.73
2017-12-15T06:39:19.735Z,100104.56
2017-12-15T06:41:49.044Z,100108.66
2017-12-15T06:44:18.191Z,100105.92
2017-12-15T06:46:47.314Z,100100.50
2017-12-15T06:49:16.580Z,100095.19
2017-12-15T06:51:45.788Z,100106.75
2017-12-15T06:54:14.850Z,100105.50
2017-12-15T06:56:47.023Z,100098.66
2017-12-15T06:59:17.717Z,100106.45
2017-12-15T07:01:52.892Z,100101.41
2017-12-15T07:04:22.012Z,100105.88
2017-12-15T07:06:52.849Z,100104.28
2017-12-15T07:09:24.144Z,100104.09
2017-12-15T07:11:54.653Z,100096.81
2017-12-15T07:14:23.743Z,100106.45
2017-12-15T07:16:55.601Z,100114.45
2017-12-15T07:19:24.666Z,100110.05
2017-12-15T07:21:54.282Z,100118.55
2017-12-15T07:24:23.407Z,100117.28
2017-12-15T07:26:55.941Z,100116.56
2017-12-15T07:29:25.141Z,100125.59
2017-12-15T07:31:54.325Z,100122.52
2017-12-15T07:34:23.896Z,100121.42
2017-12-15T07:36:53.681Z,100116.09
2017-12-15T07:39:22.715Z,100123.34
2017-12-15T07:41:52.058Z,100124.12
2017-12-15T07:44:22.371Z,100129.88
2017-12-15T07:46:51.383Z,100141.80
2017-12-15T07:49:21.397Z,100142.34
2017-12-15T07:51:51.283Z,100140.92
2017-12-15T07:54:22.252Z,100141.44
2017-12-15T07:56:51.578Z,100143.03
2017-12-15T07:59:20.793Z,100140.94
2017-12-15T08:01:49.943Z,100141.53
2017-12-15T08:04:18.956Z,100132.77
2017-12-15T08:06:48.066Z,100137.73
2017-12-15T08:09:17.163Z,100139.43
2017-12-15T08:11:46.682Z,100135.55
2017-12-15T08:14:15.764Z,100135.12
2017-12-15T08:16:44.862Z,100134.31
2017-12-15T08:19:17.881Z,100131.78
2017-12-15T08:21:47.891Z,100127.20
2017-12-15T08:24:16.920Z,100128.37
2017-12-15T08:26:48.065Z,100130.98
2017-12-15T08:29:18.137Z,100120.47
2017-12-15T08:31:47.045Z,100111.34
2017-12-15T08:34:16.816Z,100114.26
2017-12-15T08:36:45.842Z,100121.23
2017-12-15T08:39:14.800Z,100130.81
2017-12-15T08:41:44.150Z,100133.29
2017-12-15T08:44:13.073Z,100133.88
2017-12-15T08:46:43.635Z,100139.52
2017-12-15T08:49:14.410Z,100139.20
2017-12-15T08:51:43.454Z,100137.84
2017-12-15T08:54:12.559Z,100122.64
2017-12-15T08:56:41.832Z,100119.80
2017-12-15T08:59:11.037Z,100110.78
2017-12-15T09:01:40.223Z,100093.30
2017-12-15T09:04:19.776Z,100096.44
2017-12-15T09:06:53.299Z,100101.37
2017-12-15T09:09:22.583Z,100091.69
2017-12-15T09:11:51.617Z,100093.22
2017-12-15T09:14:20.655Z,100092.08
2017-12-15T09:16:49.704Z,100085.84
2017-12-15T09:19:18.582Z,100083.30
2017-12-15T09:21:47.523Z,100078.08
2017-12-15T09:24:17.508Z,100065.62
2017-12-15T09:26:46.407Z,100062.33
2017-12-15T09:29:15.361Z,100068.41
2017-12-15T09:31:46.766Z,100073.09
2017-12-15T09:34:17.573Z,100071.50
2017-12-15T09:36:49.592Z,100074.89
2017-12-15T09:39:18.629Z,100070.59
2017-12-15T09:41:47.562Z,100071.16
2017-12-15T09:44:17.330Z,100067.34
2017-12-15T09:46:46.256Z,100069.03
2017-12-15T09:49:15.153Z,100070.27
2017-12-15T09:51:44.050Z,100066.61
2017-12-15T09:54:12.864Z,100065.96
2017-12-15T09:56:41.690Z,100057.31
2017-12-15T09:59:11.433Z,100053.41
2017-12-15T10:01:40.363Z,100038.31
2017-12-15T10:04:09.240Z,100038.41
2017-12-15T10:06:38.168Z,100044.83
2017-12-15T10:09:07.192Z,100053.00
2017-12-15T10:11:36.324Z,100055.28
2017-12-15T10:14:06.009Z,100055.75
2017-12-15T10:16:34.857Z,100061.72
2017-12-15T10:19:04.148Z,100061.57
2017-12-15T10:21:33.967Z,100064.14
2017-12-15T10:24:03.958Z,100066.27
2017-12-15T10:26:33.200Z,100060.84
2017-12-15T10:29:03.163Z,100057.17
2017-12-15T10:31:32.114Z,100055.05
2017-12-15T10:34:01.157Z,100056.56
2017-12-15T10:36:30.509Z,100050.55
2017-12-15T10:38:59.599Z,100044.49
2017-12-15T10:41:28.747Z,100037.70
2017-12-15T10:43:57.898Z,100032.42
2017-12-15T10:46:27.708Z,100029.67
2017-12-15T10:49:00.668Z,100028.20
2017-12-15T10:51:29.842Z,100026.98
2017-12-15T10:53:59.134Z,100022.44
2017-12-15T10:59:04.829Z,100020.71
2017-12-15T11:01:34.158Z,100026.49
2017-12-15T11:04:04.893Z,100024.38
2017-12-15T11:06:33.886Z,100016.60
2017-12-15T11:09:03.138Z,100010.28
2017-12-15T11:11:33.698Z,100008.13
2017-12-15T11:14:04.772Z,100004.60
2017-12-15T11:16:37.297Z,100002.38
2017-12-15T11:19:06.535Z,100001.46
2017-12-15T11:21:35.584Z,100003.70
2017-12-15T11:24:07.425Z,99998.72
2017-12-15T11:26:37.270Z,100008.06
2017-12-15T11:29:06.876Z,100004.94
2017-12-15T11:31:37.690Z,100015.61
2017-12-15T11:34:07.519Z,100008.62
2017-12-15T11:36:37.525Z,99998.67
2017-12-15T11:39:06.825Z,99997.89
2017-12-15T11:41:35.636Z,100003.16
2017-12-15T11:44:04.569Z,100008.82
2017-12-15T11:46:33.899Z,100006.49
2017-12-15T11:49:02.926Z,99996.66
2017-12-15T11:51:32.003Z,100003.47
2017-12-15T11:54:02.777Z,99999.10
2017-12-15T11:56:31.665Z,100003.22
2017-12-15T11:59:01.007Z,100001.62
2017-12-15T12:01:30.058Z,100002.72
2017-12-15T12:04:00.015Z,100006.16
2017-12-15T12:06:29.183Z,100008.61
2017-12-15T12:08:59.342Z,100007.05
2017-12-15T12:11:28.676Z,100007.61
2017-12-15T12:13:57.666Z,100007.60
2017-12-15T12:16:27.689Z,100003.58
2017-12-15T12:18:56.874Z,100002.72
2017-12-15T12:21:27.158Z,100000.64
2017-12-15T12:23:56.422Z,99996.26
2017-12-15T12:26:26.792Z,99994.72
2017-12-15T12:28:55.937Z,99996.94
2017-12-15T12:31:25.813Z,99999.47
2017-12-15T12:33:54.866Z,100001.62
2017-12-15T12:36:23.895Z,100002.47
2017-12-15T12:38:53.186Z,100004.80
2017-12-15T12:41:22.437Z,100005.19
2017-12-15T12:43:59.111Z,99998.58
2017-12-15T12:46:28.420Z,100002.61
2017-12-15T12:48:57.423Z,100001.37
2017-12-15T12:51:27.942Z,100004.41
2017-12-15T12:53:57.118Z,100000.07
2017-12-15T12:56:26.821Z,99998.27
2017-12-15T12:59:01.195Z,100005.69
2017-12-15T13:01:30.534Z,100003.59
2017-12-15T13:04:00.004Z,100003.08
2017-12-15T13:06:29.226Z,100010.75
2017-12-15T13:08:58.322Z,100004.16
2017-12-15T13:11:27.296Z,100002.53
2017-12-15T13:13:59.260Z,99994.73
2017-12-15T13:16:29.049Z,99995.17
2017-12-15T13:18:58.607Z,100001.23
2017-12-15T13:21:28.722Z,100013.37
2017-12-15T13:24:00.071Z,100012.52
2017-12-15T13:26:30.384Z,100009.05
2017-12-15T13:29:00.299Z,100017.94
2017-12-15T13:31:29.923Z,100019.09
2017-12-15T13:34:00.913Z,100021.88
2017-12-15T13:36:30.288Z,100027.87
2017-12-15T13:38:59.256Z,100021.02
2017-12-15T13:41:28.416Z,100015.50
2017-12-15T13:43:58.019Z,100013.94
2017-12-15T13:46:28.122Z,100010.62
2017-12-15T13:49:01.036Z,100015.98
2017-12-15T13:51:30.980Z,100007.95
2017-12-15T13:54:00.192Z,100000.87
2017-12-15T13:56:31.229Z,99996.98
2017-12-15T13:59:01.158Z,99992.70
2017-12-15T14:01:30.307Z,99991.52
2017-12-15T14:04:00.634Z,99993.31
2017-12-15T14:06:30.713Z,100004.11
2017-12-15T14:08:59.844Z,100008.45
2017-12-15T14:11:31.549Z,100004.31
2017-12-15T14:14:00.715Z,100006.14
2017-12-15T14:16:30.778Z,100009.84
2017-12-15T14:19:00.110Z,100003.70
2017-12-15T14:21:29.400Z,100003.98
2017-12-15T14:23:59.684Z,100005.96
2017-12-15T14:26:31.687Z,100016.86
2017-12-15T14:29:01.347Z,100023.00
2017-12-15T14:31:31.475Z,100019.11
2017-12-15T14:34:01.196Z,100011.09
2017-12-15T14:36:30.602Z,100020.92
2017-12-15T14:39:00.243Z,100011.19
2017-12-15T14:41:30.984Z,100020.13
2017-12-15T14:44:00.182Z,100015.11
2017-12-15T14:46:29.286Z,100009.22
2017-12-15T14:48:59.335Z,100007.67
2017-12-15T14:51:30.245Z,100008.65
2017-12-15T14:54:02.076Z,100009.22
2017-12-15T14:56:32.024Z,100004.66
2017-12-15T14:59:01.673Z,100004.72
2017-12-15T15:01:31.537Z,99995.02
2017-12-15T15:04:00.691Z,99977.80
2017-12-15T15:06:30.083Z,99975.29
2017-12-15T15:09:01.911Z,99971.52
2017-12-15T15:11:30.952Z,99967.66
2017-12-15T15:14:00.107Z,99972.29
2017-12-15T15:16:29.093Z,99986.78
2017-12-15T15:18:58.437Z,99969.42
2017-12-15T15:21:27.393Z,99967.70
2017-12-15T15:23:56.885Z,99955.86
2017-12-15T15:26:26.114Z,99947.11
2017-12-15T15:29:03.528Z,99950.53
2017-12-15T15:31:32.939Z,99955.75
2017-12-15T15:34:03.135Z,99965.11
2017-12-15T15:36:34.962Z,99958.75
2017-12-15T15:39:05.126Z,99954.02
2017-12-15T15:41:34.256Z,99959.58
2017-12-15T15:44:04.839Z,99958.28
2017-12-15T15:46:34.190Z,99947.67
2017-12-15T15:49:04.906Z,99942.39
2017-12-15T15:51:35.034Z,99922.92
2017-12-15T15:54:05.298Z,99919.88
2017-12-15T15:56:34.609Z,99916.75
2017-12-15T15:59:04.006Z,99916.66
2017-12-15T16:01:33.287Z,99911.95
2017-12-15T16:04:02.698Z,99913.64
2017-12-15T16:06:32.365Z,99906.92
2017-12-15T16:09:01.902Z,99914.59
2017-12-15T16:11:31.462Z,99913.38
2017-12-15T16:14:00.699Z,99914.70
2017-12-15T16:16:29.933Z,99913.16
2017-12-15T16:19:00.077Z,99914.09
2017-12-15T16:24:04.965Z,99921.48
2017-12-15T16:26:34.014Z,99927.94
2017-12-15T16:29:06.697Z,99932.22
2017-12-15T16:31:36.508Z,99931.77
2017-12-15T16:34:06.676Z,99940.22
2017-12-15T16:36:36.051Z,99936.83
2017-12-15T16:39:05.964Z,99928.84
2017-12-15T16:41:35.345Z,99919.89
2017-12-15T16:44:06.313Z,99926.17
2017-12-15T16:46:36.520Z,99920.66
2017-12-15T16:49:06.581Z,99924.45
2017-12-15T16:51:35.852Z,99920.59
2017-12-15T16:54:05.849Z,99921.88
2017-12-15T16:56:35.969Z,99924.37
2017-12-15T16:59:05.270Z,99919.72
2017-12-15T17:01:35.929Z,99920.56
2017-12-15T17:04:05.247Z,99915.52
2017-12-15T17:06:34.424Z,99912.94
2017-12-15T17:09:03.628Z,99902.28
2017-12-15T17:11:33.967Z,99898.38
2017-12-15T17:14:03.426Z,99916.73
2017-12-15T17:16:32.727Z,99915.92
2017-12-15T17:19:01.906Z,99913.83
2017-12-15T17:21:31.227Z,99904.44
2017-12-15T17:24:01.568Z,99907.87
2017-12-15T17:26:32.641Z,99898.50
2017-12-15T17:29:01.932Z,99892.59
2017-12-15T17:31:31.813Z,99901.09
2017-12-15T17:34:01.293Z,99896.02
2017-12-15T17:36:31.180Z,99903.64
2017-12-15T17:39:00.551Z,99894.58
2017-12-15T17:41:29.812Z,99900.06
2017-12-15T17:43:59.102Z,99894.13
2017-12-15T17:46:28.590Z,99897.46
2017-12-15T17:48:58.650Z,99896.64
2017-12-15T17:51:28.680Z,99894.52
2017-12-15T17:54:00.642Z,99891.59
2017-12-15T17:56:30.135Z,99888.18
2017-12-15T17:59:00.034Z,99883.12
2017-12-15T18:01:30.885Z,99880.55
2017-12-15T18:04:01.973Z,99875.08
2017-12-15T18:06:31.298Z,99868.78
2017-12-15T18:09:00.507Z,99863.50
2017-12-15T18:11:29.792Z,99865.53
2017-12-15T18:14:00.802Z,99863.33
2017-12-15T18:16:30.142Z,99853.02
2017-12-15T18:18:59.665Z,99843.31
2017-12-15T18:21:29.277Z,99840.20
2017-12-15T18:26:34.145Z,99844.04
2017-12-15T18:29:03.491Z,99852.12
2017-12-15T18:31:33.566Z,99850.05
2017-12-15T18:34:03.521Z,99849.25
2017-12-15T18:36:32.997Z,99843.31
2017-12-15T18:39:25.193Z,99835.72
2017-12-15T18:41:54.234Z,99836.97
2017-12-15T18:44:23.379Z,99827.10
2017-12-15T18:46:52.554Z,99829.72
2017-12-15T18:49:21.676Z,99814.84
2017-12-15T18:51:52.618Z,99813.16
2017-12-15T18:54:22.838Z,99803.41
2017-12-15T18:56:52.410Z,99802.11
2017-12-15T18:59:21.754Z,99803.41
2017-12-15T19:01:51.308Z,99793.68
2017-12-15T19:04:21.593Z,99797.93
2017-12-15T19:06:51.436Z,99801.34
2017-12-15T19:09:21.269Z,99816.59
2017-12-15T19:11:50.705Z,99822.98
2017-12-15T19:14:21.065Z,99815.80
2017-12-15T19:16:50.130Z,99810.66
2017-12-15T19:19:19.660Z,99810.52
2017-12-15T19:21:49.888Z,99808.74
2017-12-15T19:24:19.183Z,99814.46
2017-12-15T19:26:48.358Z,99814.91
2017-12-15T19:29:18.394Z,99811.98
2017-12-15T19:31:48.716Z,99803.42
2017-12-15T19:34:17.921Z,99807.63
2017-12-15T19:36:47.137Z,99808.84
2017-12-15T19:39:16.231Z,99810.56
2017-12-15T19:41:45.321Z,99805.43
2017-12-15T19:44:15.644Z,99810.06
2017-12-15T19:46:45.076Z,99799.45
2017-12-15T19:49:14.266Z,99790.02
2017-12-15T19:51:46.691Z,99793.69
2017-12-15T19:54:17.637Z,99792.66
2017-12-15T19:56:47.721Z,99793.75
2017-12-15T19:59:16.850Z,99786.51
2017-12-15T20:01:46.056Z,99788.31
2017-12-15T20:04:17.716Z,99780.97
2017-12-15T20:06:47.538Z,99772.34
2017-12-15T20:09:16.773Z,99772.68
2017-12-15T20:11:50.797Z,99770.19
2017-12-15T20:14:19.850Z,99780.84
2017-12-15T20:16:48.970Z,99776.06
2017-12-15T20:19:18.048Z,99781.88
2017-12-15T20:21:47.405Z,99777.92
2017-12-15T20:24:17.040Z,99773.91
2017-12-15T20:26:46.309Z,99781.51
2017-12-15T20:29:15.570Z,99797.52
2017-12-15T20:31:44.822Z,99795.02
2017-12-15T20:34:14.454Z,99800.63
2017-12-15T20:36:44.812Z,99796.39
2017-12-15T20:39:14.125Z,99795.70
2017-12-15T20:41:46.320Z,99796.71
2017-12-15T20:44:15.434Z,99797.53
2017-12-15T20:46:44.807Z,99800.80
2017-12-15T20:49:14.606Z,99801.30
2017-12-15T20:51:44.035Z,99796.20
2017-12-15T20:54:13.524Z,99794.41
2017-12-15T20:56:43.061Z,99796.13
2017-12-15T20:59:23.546Z,99792.96
2017-12-15T21:02:00.137Z,99785.63
2017-12-15T21:04:29.815Z,99780.47
2017-12-15T21:06:59.165Z,99787.15
2017-12-15T21:09:28.504Z,99781.25
2017-12-15T21:11:57.950Z,99773.13
2017-12-15T21:14:27.356Z,99774.56
2017-12-15T21:16:57.500Z,99773.82
2017-12-15T21:19:26.842Z,99775.62
2017-12-15T21:21:56.234Z,99766.81
2017-12-15T21:24:27.015Z,99774.77
2017-12-15T21:26:56.779Z,99769.30
2017-12-15T21:29:26.965Z,99768.58
2017-12-15T21:31:57.986Z,99757.31
2017-12-15T21:34:27.073Z,99757.08
2017-12-15T21:36:56.066Z,99749.17
2017-12-15T21:39:24.982Z,99747.99
2017-12-15T21:41:54.126Z,99743.61
2017-12-15T21:44:23.092Z,99742.48
2017-12-15T21:46:56.550Z,99748.84
2017-12-15T21:49:25.564Z,99749.66
2017-12-15T21:51:54.578Z,99747.13
2017-12-15T21:54:23.633Z,99744.09
2017-12-15T21:56:54.944Z,99749.22
2017-12-15T21:59:24.109Z,99743.30
2017-12-15T22:01:55.315Z,99737.27
2017-12-15T22:04:24.351Z,99739.18
2017-12-15T22:06:53.475Z,99738.18
2017-12-15T22:09:25.572Z,99737.65
2017-12-15T22:11:55.611Z,99721.17
2017-12-15T22:14:24.763Z,99726.04
2017-12-15T22:16:54.858Z,99723.42
2017-12-15T22:19:24.157Z,99721.31
2017-12-15T22:21:53.202Z,99729.00
2017-12-15T22:24:24.887Z,99719.56
2017-12-15T22:26:53.800Z,99720.74
2017-12-15T22:29:22.715Z,99720.70
2017-12-15T22:31:51.998Z,99715.92
2017-12-15T22:34:20.957Z,99718.87
2017-12-15T22:36:49.868Z,99719.50
2017-12-15T22:39:18.885Z,99723.17
2017-12-15T22:41:47.916Z,99707.98
2017-12-15T22:44:17.254Z,99703.58
2017-12-15T22:46:47.060Z,99697.23
2017-12-15T22:49:16.318Z,99702.53
2017-12-15T22:51:46.130Z,99700.34
2017-12-15T22:54:16.245Z,99681.16
2017-12-15T22:56:45.795Z,99702.03
2017-12-15T22:59:14.924Z,99699.14
2017-12-15T23:01:45.471Z,99695.72
2017-12-15T23:04:14.785Z,99704.61
2017-12-15T23:06:44.271Z,99694.11
2017-12-15T23:09:13.671Z,99692.48
2017-12-15T23:11:44.609Z,99690.77
2017-12-15T23:14:13.917Z,99686.44
2017-12-15T23:16:44.406Z,99683.47
2017-12-15T23:19:14.281Z,99689.37
2017-12-15T23:21:44.349Z,99678.15
2017-12-15T23:24:13.884Z,99676.06
2017-12-15T23:26:43.176Z,99677.73
2017-12-15T23:29:12.268Z,99679.92
2017-12-15T23:34:20.568Z,99676.06
2017-12-15T23:36:50.863Z,99675.92
2017-12-15T23:39:23.812Z,99659.31
2017-12-15T23:41:54.903Z,99666.56
2017-12-15T23:47:02.088Z,99646.72
2017-12-15T23:49:31.581Z,99652.00
2017-12-15T23:52:00.869Z,99656.25
2017-12-15T23:54:41.740Z,99649.31
2017-12-15T23:57:11.615Z,99656.54
2017-12-15T23:59:42.709Z,99656.56
